createdAt,value
2019-06-08T00:02:23.605Z,21.50
2019-06-08T00:04:53.645Z,21.50
2019-06-08T00:07:23.446Z,21.50
2019-06-08T00:09:53.288Z,21.50
2019-06-08T00:12:23.347Z,21.50
2019-06-08T00:14:53.024Z,21.50
2019-06-08T00:17:35.832Z,21.40
2019-06-08T00:19:54.296Z,21.50
2019-06-08T00:22:24.043Z,21.40
2019-06-08T00:24:53.838Z,21.40
2019-06-08T00:27:24.598Z,21.40
2019-06-08T00:29:54.508Z,21.40
2019-06-08T00:32:24.592Z,21.40
2019-06-08T00:34:55.651Z,21.40
2019-06-08T00:37:25.286Z,21.40
2019-06-08T00:39:54.969Z,21.40
2019-06-08T00:42:25.517Z,21.30
2019-06-08T00:44:55.603Z,21.30
2019-06-08T00:47:26.786Z,21.30
2019-06-08T00:49:56.779Z,21.30
2019-06-08T00:52:26.599Z,21.20
2019-06-08T00:54:56.921Z,21.30
2019-06-08T00:57:26.822Z,21.20
2019-06-08T00:59:56.531Z,21.20
2019-06-08T01:02:26.775Z,21.20
2019-06-08T01:04:57.824Z,21.20
2019-06-08T01:07:27.691Z,21.20
2019-06-08T01:09:57.404Z,21.20
2019-06-08T01:12:27.193Z,21.10
2019-06-08T01:14:57.001Z,21.10
2019-06-08T01:17:27.450Z,21.10
2019-06-08T01:19:58.561Z,21.10
2019-06-08T01:22:29.543Z,21.10
2019-06-08T01:24:59.475Z,21.10
2019-06-08T01:27:30.154Z,21.10
2019-06-08T01:29:59.943Z,21.10
2019-06-08T01:32:30.607Z,21.10
2019-06-08T01:35:00.771Z,21.10
2019-06-08T01:37:31.219Z,21.00
2019-06-08T01:40:01.276Z,21.10
2019-06-08T01:42:32.057Z,21.00
2019-06-08T01:45:01.737Z,21.00
2019-06-08T01:47:32.407Z,21.00
2019-06-08T01:50:02.518Z,21.00
2019-06-08T01:52:32.972Z,21.00
2019-06-08T01:55:03.017Z,21.00
2019-06-08T01:57:33.841Z,21.00
2019-06-08T02:00:29.457Z,21.00
2019-06-08T02:02:37.756Z,21.00
2019-06-08T02:05:08.244Z,21.00
2019-06-08T02:07:38.200Z,21.00
2019-06-08T02:10:08.915Z,21.00
2019-06-08T02:12:38.808Z,21.00
2019-06-08T02:15:09.239Z,21.00
2019-06-08T02:17:39.126Z,21.00
2019-06-08T02:20:10.012Z,20.90
2019-06-08T02:22:39.929Z,20.90
2019-06-08T02:25:10.303Z,20.90
2019-06-08T02:27:39.911Z,20.90
2019-06-08T02:30:12.636Z,20.90
2019-06-08T02:32:43.558Z,20.90
2019-06-08T02:35:14.036Z,20.90
2019-06-08T02:37:43.888Z,20.90
2019-06-08T02:40:14.313Z,21.00
2019-06-08T02:42:44.088Z,20.90
2019-06-08T02:45:14.227Z,20.90
2019-06-08T02:47:44.130Z,20.90
2019-06-08T02:50:14.285Z,20.90
2019-06-08T02:52:46.389Z,21.00
2019-06-08T02:55:16.590Z,21.00
2019-06-08T02:57:47.570Z,21.00
2019-06-08T03:00:18.599Z,20.90
2019-06-08T03:02:50.225Z,21.00
2019-06-08T03:05:20.124Z,21.00
2019-06-08T03:07:51.788Z,21.00
2019-06-08T03:10:21.661Z,21.00
2019-06-08T03:12:54.165Z,21.00
2019-06-08T03:15:26.880Z,21.00
2019-06-08T03:17:56.663Z,21.00
2019-06-08T03:20:27.647Z,21.00
2019-06-08T03:22:57.422Z,21.00
2019-06-08T03:25:27.389Z,21.00
2019-06-08T03:27:57.233Z,21.00
2019-06-08T03:30:26.890Z,21.00
2019-06-08T03:32:57.254Z,21.10
2019-06-08T03:35:27.224Z,21.00
2019-06-08T03:37:56.788Z,21.10
2019-06-08T03:40:26.609Z,21.10
2019-06-08T03:42:58.005Z,21.20
2019-06-08T03:45:27.785Z,21.20
2019-06-08T03:47:57.617Z,21.20
2019-06-08T03:50:27.500Z,21.20
2019-06-08T03:52:57.290Z,21.10
2019-06-08T03:55:27.046Z,21.20
2019-06-08T03:57:56.878Z,21.20
2019-06-08T04:00:26.892Z,21.20
2019-06-08T04:02:56.809Z,21.20
2019-06-08T04:05:26.632Z,21.20
2019-06-08T04:07:56.644Z,21.30
2019-06-08T04:10:26.541Z,21.30
2019-06-08T04:12:56.410Z,21.30
2019-06-08T04:15:26.275Z,21.40
2019-06-08T04:17:55.976Z,21.40
2019-06-08T04:20:25.812Z,21.40
2019-06-08T04:22:55.625Z,21.40
2019-06-08T04:25:25.746Z,21.40
2019-06-08T04:27:55.589Z,21.50
2019-06-08T04:30:25.512Z,21.50
2019-06-08T04:32:55.389Z,21.50
2019-06-08T04:35:25.134Z,21.50
2019-06-08T04:37:55.238Z,21.60
2019-06-08T04:40:25.143Z,21.60
2019-06-08T04:42:55.050Z,21.60
2019-06-08T04:45:24.985Z,21.70
2019-06-08T04:47:54.798Z,21.70
2019-06-08T04:50:24.631Z,21.70
2019-06-08T04:52:54.444Z,21.70
2019-06-08T04:55:24.744Z,21.80
2019-06-08T04:57:54.690Z,21.80
2019-06-08T05:00:24.575Z,21.80
2019-06-08T05:02:55.116Z,21.90
2019-06-08T05:05:24.850Z,21.90
2019-06-08T05:07:54.463Z,22.00
2019-06-08T05:10:24.348Z,22.00
2019-06-08T05:12:54.092Z,22.10
2019-06-08T05:15:24.012Z,22.10
2019-06-08T05:17:53.913Z,22.20
2019-06-08T05:20:37.788Z,22.20
2019-06-08T05:22:55.297Z,22.20
2019-06-08T05:25:25.179Z,22.30
2019-06-08T05:27:54.990Z,22.30
2019-06-08T05:30:28.016Z,22.30
2019-06-08T05:32:57.308Z,22.40
2019-06-08T05:35:27.218Z,22.40
2019-06-08T05:37:57.059Z,22.40
2019-06-08T05:40:26.968Z,22.50
2019-06-08T05:42:56.853Z,22.50
2019-06-08T05:45:26.793Z,22.60
2019-06-08T05:47:57.753Z,22.60
2019-06-08T05:50:27.499Z,22.70
2019-06-08T05:52:57.356Z,22.70
2019-06-08T05:55:27.216Z,22.80
2019-06-08T05:57:57.101Z,22.80
2019-06-08T06:00:27.009Z,22.80
2019-06-08T06:02:56.820Z,22.90
2019-06-08T06:05:26.672Z,22.90
2019-06-08T06:07:56.530Z,22.90
2019-06-08T06:10:26.430Z,22.90
2019-06-08T06:12:57.512Z,23.00
2019-06-08T06:15:27.157Z,23.10
2019-06-08T06:17:56.996Z,23.20
2019-06-08T06:20:26.843Z,23.20
2019-06-08T06:22:58.631Z,23.20
2019-06-08T06:25:28.033Z,23.30
2019-06-08T06:27:57.795Z,23.40
2019-06-08T06:30:27.441Z,23.40
2019-06-08T06:32:57.351Z,23.40
2019-06-08T06:35:27.215Z,23.50
2019-06-08T06:37:57.164Z,23.50
2019-06-08T06:40:26.964Z,23.50
2019-06-08T06:42:56.568Z,23.60
2019-06-08T06:45:26.476Z,23.70
2019-06-08T06:47:56.360Z,23.70
2019-06-08T06:50:26.319Z,23.80
2019-06-08T06:52:56.142Z,23.80
2019-06-08T06:55:26.259Z,23.80
2019-06-08T06:57:56.072Z,23.80
2019-06-08T07:00:28.791Z,23.90
2019-06-08T07:02:59.566Z,24.00
2019-06-08T07:05:29.495Z,24.10
2019-06-08T07:08:00.021Z,24.10
2019-06-08T07:10:30.125Z,24.20
2019-06-08T07:13:00.205Z,24.30
2019-06-08T07:15:30.230Z,24.30
2019-06-08T07:18:00.074Z,24.40
2019-06-08T07:20:30.048Z,24.40
2019-06-08T07:23:00.755Z,24.60
2019-06-08T07:25:30.527Z,24.60
2019-06-08T07:28:00.441Z,24.70
2019-06-08T07:30:30.348Z,24.80
2019-06-08T07:33:00.160Z,24.90
2019-06-08T07:35:30.102Z,25.10
2019-06-08T07:38:00.533Z,25.20
2019-06-08T07:40:30.449Z,25.30
2019-06-08T07:43:00.453Z,25.40
2019-06-08T07:45:30.371Z,25.60
2019-06-08T07:48:00.624Z,25.70
2019-06-08T07:50:30.643Z,25.90
2019-06-08T07:53:00.472Z,26.00
2019-06-08T07:55:30.243Z,26.10
2019-06-08T07:58:01.184Z,26.30
2019-06-08T08:00:31.358Z,26.40
2019-06-08T08:03:01.204Z,26.50
2019-06-08T08:05:32.051Z,26.80
2019-06-08T08:08:01.872Z,27.00
2019-06-08T08:10:32.900Z,27.20
2019-06-08T08:13:02.467Z,27.30
2019-06-08T08:15:32.658Z,27.50
2019-06-08T08:18:02.543Z,27.60
2019-06-08T08:20:32.482Z,27.80
2019-06-08T08:23:06.000Z,28.00
2019-06-08T08:25:33.849Z,28.20
2019-06-08T08:28:03.761Z,28.40
2019-06-08T08:30:33.667Z,28.50
2019-06-08T08:33:03.656Z,28.70
2019-06-08T08:35:33.519Z,28.80
2019-06-08T08:38:04.673Z,29.00
2019-06-08T08:40:34.600Z,29.20
2019-06-08T08:43:04.507Z,29.40
2019-06-08T08:45:34.455Z,29.60
2019-06-08T08:48:20.296Z,29.80
2019-06-08T08:50:38.173Z,29.90
2019-06-08T08:53:08.369Z,30.10
2019-06-08T08:55:38.016Z,30.30
2019-06-08T08:58:08.470Z,30.40
2019-06-08T09:00:41.292Z,30.60
2019-06-08T09:03:25.237Z,30.60
2019-06-08T09:05:40.588Z,30.70
2019-06-08T09:08:10.417Z,30.80
2019-06-08T09:10:40.317Z,30.80
2019-06-08T09:13:12.086Z,30.70
2019-06-08T09:15:41.772Z,30.60
2019-06-08T09:18:11.581Z,30.50
2019-06-08T09:20:41.401Z,30.60
2019-06-08T09:23:16.193Z,30.60
2019-06-08T09:25:41.888Z,30.60
2019-06-08T09:28:11.706Z,30.60
2019-06-08T09:30:41.554Z,30.60
2019-06-08T09:33:11.413Z,30.60
2019-06-08T09:35:41.282Z,30.40
2019-06-08T09:38:11.160Z,30.20
2019-06-08T09:40:40.817Z,30.10
2019-06-08T09:43:13.231Z,30.00
2019-06-08T09:45:41.326Z,29.80
2019-06-08T09:48:11.186Z,29.60
2019-06-08T09:50:41.002Z,29.50
2019-06-08T09:53:23.913Z,29.40
2019-06-08T09:55:41.629Z,29.30
2019-06-08T09:58:11.951Z,29.20
2019-06-08T10:00:41.892Z,29.10
2019-06-08T10:03:11.949Z,28.90
2019-06-08T10:05:41.747Z,28.90
2019-06-08T10:08:11.628Z,28.90
2019-06-08T10:10:41.491Z,28.80
2019-06-08T10:13:11.308Z,28.80
2019-06-08T10:15:41.252Z,28.90
2019-06-08T10:18:11.077Z,28.90
2019-06-08T10:20:40.993Z,28.90
2019-06-08T10:23:27.207Z,29.00
2019-06-08T10:25:42.387Z,29.10
2019-06-08T10:28:15.912Z,29.00
2019-06-08T10:30:44.799Z,28.90
2019-06-08T10:33:14.672Z,28.90
2019-06-08T10:35:44.496Z,28.90
2019-06-08T10:38:14.411Z,28.90
2019-06-08T10:40:48.205Z,28.80
2019-06-08T10:43:20.008Z,28.80
2019-06-08T10:45:51.125Z,28.80
2019-06-08T10:48:20.178Z,28.80
2019-06-08T10:50:50.090Z,28.80
2019-06-08T10:53:19.974Z,28.70
2019-06-08T10:55:49.861Z,28.70
2019-06-08T10:58:20.603Z,28.70
2019-06-08T11:00:50.467Z,28.60
2019-06-08T11:03:20.328Z,28.60
2019-06-08T11:05:51.352Z,28.60
2019-06-08T11:08:21.278Z,28.60
2019-06-08T11:10:51.152Z,28.60
2019-06-08T11:13:22.102Z,28.50
2019-06-08T11:15:52.885Z,28.40
2019-06-08T11:18:22.835Z,28.40
2019-06-08T11:20:52.605Z,28.40
2019-06-08T11:23:22.380Z,28.30
2019-06-08T11:25:52.224Z,28.30
2019-06-08T11:28:22.073Z,28.30
2019-06-08T11:30:51.974Z,28.30
2019-06-08T11:33:21.757Z,28.20
2019-06-08T11:35:51.674Z,28.20
2019-06-08T11:38:21.482Z,28.10
2019-06-08T11:40:51.219Z,28.10
2019-06-08T11:43:21.025Z,28.10
2019-06-08T11:45:50.738Z,28.10
2019-06-08T11:48:20.671Z,28.10
2019-06-08T11:50:50.576Z,28.00
2019-06-08T11:53:20.459Z,28.10
2019-06-08T11:55:51.212Z,28.00
2019-06-08T11:58:23.324Z,28.00
2019-06-08T12:01:00.751Z,28.10
2019-06-08T12:03:30.541Z,28.00
2019-06-08T12:06:02.035Z,28.00
2019-06-08T12:08:32.072Z,28.10
2019-06-08T12:11:03.762Z,28.20
2019-06-08T12:13:33.368Z,28.10
2019-06-08T12:16:03.227Z,28.10
2019-06-08T12:18:33.013Z,28.00
2019-06-08T12:21:03.785Z,28.10
2019-06-08T12:23:33.635Z,28.10
2019-06-08T12:26:04.068Z,28.20
2019-06-08T12:28:34.004Z,28.30
2019-06-08T12:31:04.751Z,28.30
2019-06-08T12:33:34.845Z,28.30
2019-06-08T12:36:06.076Z,28.30
2019-06-08T12:38:38.054Z,28.30
2019-06-08T12:41:09.644Z,28.30
2019-06-08T12:43:39.487Z,28.30
2019-06-08T12:46:11.181Z,28.30
2019-06-08T12:48:39.932Z,28.30
2019-06-08T12:51:11.655Z,28.30
2019-06-08T12:53:41.290Z,28.30
2019-06-08T12:56:12.089Z,28.30
2019-06-08T12:58:42.706Z,28.30
2019-06-08T13:01:12.915Z,28.30
2019-06-08T13:03:42.805Z,28.30
2019-06-08T13:06:13.945Z,28.30
2019-06-08T13:08:43.944Z,28.30
2019-06-08T13:11:13.979Z,28.30
2019-06-08T13:13:43.967Z,28.30
2019-06-08T13:16:14.589Z,28.20
2019-06-08T13:18:44.641Z,28.20
2019-06-08T13:21:25.450Z,28.10
2019-06-08T13:23:47.970Z,28.10
2019-06-08T13:26:21.547Z,28.00
2019-06-08T13:28:48.714Z,28.00
2019-06-08T13:31:22.114Z,27.90
2019-06-08T13:33:50.142Z,27.90
2019-06-08T13:36:26.083Z,27.80
2019-06-08T13:38:51.431Z,27.80
2019-06-08T13:41:25.950Z,27.80
2019-06-08T13:43:52.727Z,27.80
2019-06-08T13:46:23.705Z,27.80
2019-06-08T13:48:53.300Z,27.90
2019-06-08T13:51:24.183Z,27.80
2019-06-08T13:53:54.123Z,27.80
2019-06-08T13:56:24.128Z,27.80
2019-06-08T13:58:53.841Z,27.80
2019-06-08T14:01:23.914Z,27.70
2019-06-08T14:03:54.803Z,27.70
2019-06-08T14:06:24.998Z,27.70
2019-06-08T14:08:54.781Z,27.80
2019-06-08T14:11:25.294Z,27.80
2019-06-08T14:14:00.784Z,27.80
2019-06-08T14:16:29.730Z,27.70
2019-06-08T14:18:58.973Z,27.70
2019-06-08T14:21:37.842Z,27.70
2019-06-08T14:24:00.231Z,27.70
2019-06-08T14:26:30.154Z,27.70
2019-06-08T14:29:01.489Z,27.80
2019-06-08T14:31:32.079Z,27.80
2019-06-08T14:34:01.927Z,27.90
2019-06-08T14:36:31.738Z,27.90
2019-06-08T14:39:02.571Z,27.80
2019-06-08T14:41:34.349Z,27.70
2019-06-08T14:44:04.436Z,27.70
2019-06-08T14:46:34.106Z,27.60
2019-06-08T14:49:03.945Z,27.60
2019-06-08T14:51:35.472Z,27.50
2019-06-08T14:54:07.606Z,27.40
2019-06-08T14:56:37.555Z,27.40
2019-06-08T14:59:08.192Z,27.30
2019-06-08T15:01:38.242Z,27.30
2019-06-08T15:04:08.930Z,27.30
2019-06-08T15:06:39.091Z,27.20
2019-06-08T15:09:08.962Z,27.20
2019-06-08T15:11:38.889Z,27.20
2019-06-08T15:14:08.751Z,27.10
2019-06-08T15:16:41.765Z,27.10
2019-06-08T15:19:11.023Z,27.10
2019-06-08T15:21:40.839Z,27.00
2019-06-08T15:24:10.756Z,27.00
2019-06-08T15:26:45.051Z,27.00
2019-06-08T15:29:12.037Z,27.00
2019-06-08T15:31:41.635Z,26.90
2019-06-08T15:34:11.216Z,27.00
2019-06-08T15:36:40.916Z,27.00
2019-06-08T15:39:10.737Z,27.00
2019-06-08T15:41:40.558Z,26.90
2019-06-08T15:44:10.532Z,26.90
2019-06-08T15:46:41.106Z,26.90
2019-06-08T15:49:11.230Z,26.80
2019-06-08T15:51:40.975Z,26.80
2019-06-08T15:54:10.848Z,26.80
2019-06-08T15:56:48.563Z,26.70
2019-06-08T15:59:12.120Z,26.70
2019-06-08T16:01:41.868Z,26.60
2019-06-08T16:04:12.758Z,26.60
2019-06-08T16:06:42.674Z,26.50
2019-06-08T16:09:12.236Z,26.50
2019-06-08T16:11:42.104Z,26.40
2019-06-08T16:14:11.942Z,26.40
2019-06-08T16:16:41.706Z,26.40
2019-06-08T16:19:11.271Z,26.40
2019-06-08T16:21:41.191Z,26.30
2019-06-08T16:24:11.088Z,26.30
2019-06-08T16:26:52.823Z,26.20
2019-06-08T16:29:12.343Z,26.20
2019-06-08T16:31:42.236Z,26.20
2019-06-08T16:34:12.055Z,26.20
2019-06-08T16:36:41.820Z,26.10
2019-06-08T16:39:11.799Z,26.10
2019-06-08T16:41:41.551Z,26.10
2019-06-08T16:44:11.347Z,26.10
2019-06-08T16:46:41.212Z,26.00
2019-06-08T16:49:11.071Z,26.00
2019-06-08T16:51:41.959Z,26.00
2019-06-08T16:54:11.819Z,26.00
2019-06-08T16:56:41.674Z,26.00
2019-06-08T16:59:11.577Z,25.90
2019-06-08T17:01:42.505Z,25.90
2019-06-08T17:04:12.279Z,25.80
2019-06-08T17:06:42.131Z,25.70
2019-06-08T17:09:11.941Z,25.60
2019-06-08T17:11:41.859Z,25.50
2019-06-08T17:14:11.579Z,25.40
2019-06-08T17:16:41.519Z,25.30
2019-06-08T17:19:11.323Z,25.20
2019-06-08T17:21:41.143Z,25.10
2019-06-08T17:24:10.982Z,25.00
2019-06-08T17:26:40.910Z,24.90
2019-06-08T17:29:10.704Z,24.80
2019-06-08T17:31:41.395Z,24.80
2019-06-08T17:34:11.364Z,24.80
2019-06-08T17:36:41.196Z,24.70
2019-06-08T17:39:11.080Z,24.70
2019-06-08T17:41:42.087Z,24.60
2019-06-08T17:44:12.384Z,24.60
2019-06-08T17:46:43.127Z,24.50
2019-06-08T17:49:13.044Z,24.50
2019-06-08T17:51:44.400Z,24.50
2019-06-08T17:54:14.433Z,24.40
2019-06-08T17:56:44.299Z,24.40
2019-06-08T17:59:14.178Z,24.40
2019-06-08T18:01:44.033Z,24.40
2019-06-08T18:04:13.827Z,24.40
2019-06-08T18:06:44.609Z,24.40
2019-06-08T18:09:14.602Z,24.30
2019-06-08T18:11:45.213Z,24.30
2019-06-08T18:14:18.052Z,24.30
2019-06-08T18:16:48.441Z,24.30
2019-06-08T18:19:21.244Z,24.20
2019-06-08T18:21:51.050Z,24.30
2019-06-08T18:24:20.989Z,24.30
2019-06-08T18:26:51.410Z,24.20
2019-06-08T18:29:21.275Z,24.20
2019-06-08T18:31:51.032Z,24.20
2019-06-08T18:34:20.883Z,24.20
2019-06-08T18:36:50.782Z,24.20
2019-06-08T18:39:20.685Z,24.10
2019-06-08T18:41:50.605Z,24.10
2019-06-08T18:44:20.535Z,24.10
2019-06-08T18:46:50.337Z,24.10
2019-06-08T18:49:20.824Z,24.10
2019-06-08T18:51:52.908Z,24.10
2019-06-08T18:54:23.795Z,24.10
2019-06-08T18:56:53.755Z,24.10
2019-06-08T18:59:23.546Z,24.10
2019-06-08T19:01:53.392Z,24.10
2019-06-08T19:04:23.254Z,24.10
2019-06-08T19:06:53.999Z,24.10
2019-06-08T19:09:24.086Z,24.10
2019-06-08T19:11:53.952Z,24.10
2019-06-08T19:14:23.840Z,24.00
2019-06-08T19:16:54.791Z,24.00
2019-06-08T19:19:24.724Z,24.00
2019-06-08T19:21:57.884Z,24.00
2019-06-08T19:24:28.053Z,24.00
2019-06-08T19:26:59.372Z,24.00
2019-06-08T19:29:29.257Z,24.00
2019-06-08T19:32:00.546Z,23.90
2019-06-08T19:34:33.146Z,23.90
2019-06-08T19:37:02.034Z,23.90
2019-06-08T19:39:31.838Z,23.90
2019-06-08T19:42:01.608Z,23.90
2019-06-08T19:44:31.399Z,23.90
2019-06-08T19:47:01.242Z,23.90
2019-06-08T19:49:31.064Z,23.90
2019-06-08T19:52:00.833Z,23.90
2019-06-08T19:54:30.616Z,23.90
2019-06-08T19:57:00.471Z,23.90
2019-06-08T19:59:30.257Z,23.80
2019-06-08T20:02:00.114Z,23.80
2019-06-08T20:04:29.887Z,23.80
2019-06-08T20:07:00.638Z,23.80
2019-06-08T20:09:30.565Z,23.80
2019-06-08T20:12:00.416Z,23.80
2019-06-08T20:14:30.228Z,23.70
2019-06-08T20:16:59.995Z,23.70
2019-06-08T20:19:29.581Z,23.70
2019-06-08T20:21:59.372Z,23.60
2019-06-08T20:24:29.262Z,23.60
2019-06-08T20:26:59.248Z,23.50
2019-06-08T20:29:29.125Z,23.50
2019-06-08T20:31:58.890Z,23.40
2019-06-08T20:34:28.627Z,23.40
2019-06-08T20:37:01.435Z,23.30
2019-06-08T20:39:29.947Z,23.30
2019-06-08T20:41:59.804Z,23.30
2019-06-08T20:44:30.305Z,23.20
2019-06-08T20:47:00.091Z,23.20
2019-06-08T20:49:30.949Z,23.20
2019-06-08T20:52:00.683Z,23.20
2019-06-08T20:54:30.442Z,23.10
2019-06-08T20:57:00.388Z,23.10
2019-06-08T20:59:34.015Z,23.10
2019-06-08T21:02:01.697Z,23.00
2019-06-08T21:04:31.441Z,23.00
2019-06-08T21:07:01.231Z,23.00
2019-06-08T21:09:31.005Z,23.00
2019-06-08T21:12:00.641Z,22.90
2019-06-08T21:14:30.419Z,22.90
2019-06-08T21:17:00.308Z,22.80
2019-06-08T21:19:30.184Z,22.80
2019-06-08T21:22:00.002Z,22.80
2019-06-08T21:24:29.776Z,22.80
2019-06-08T21:27:00.943Z,22.80
2019-06-08T21:29:46.939Z,22.70
2019-06-08T21:32:02.940Z,22.70
2019-06-08T21:34:32.753Z,22.70
2019-06-08T21:37:02.563Z,22.70
2019-06-08T21:39:32.316Z,22.60
2019-06-08T21:42:03.366Z,22.60
2019-06-08T21:44:33.288Z,22.60
2019-06-08T21:47:03.175Z,22.50
2019-06-08T21:49:32.948Z,22.50
2019-06-08T21:52:02.832Z,22.50
2019-06-08T21:54:32.647Z,22.50
2019-06-08T21:57:02.507Z,22.40
2019-06-08T21:59:32.448Z,22.40
2019-06-08T22:02:04.038Z,22.30
2019-06-08T22:04:37.092Z,22.30
2019-06-08T22:07:07.098Z,22.30
2019-06-08T22:09:37.396Z,22.10
2019-06-08T22:12:07.351Z,22.10
2019-06-08T22:14:37.899Z,22.10
2019-06-08T22:17:08.114Z,22.00
2019-06-08T22:19:39.010Z,22.00
2019-06-08T22:22:08.864Z,22.00
2019-06-08T22:24:38.601Z,21.90
2019-06-08T22:27:08.336Z,21.90
2019-06-08T22:29:38.380Z,21.90
2019-06-08T22:32:08.246Z,21.90
2019-06-08T22:34:37.979Z,21.90
2019-06-08T22:37:08.605Z,21.80
2019-06-08T22:39:38.719Z,21.80
2019-06-08T22:42:08.576Z,21.80
2019-06-08T22:44:38.382Z,21.70
2019-06-08T22:47:08.322Z,21.70
2019-06-08T22:49:38.519Z,21.70
2019-06-08T22:52:08.475Z,21.60
2019-06-08T22:54:38.496Z,21.60
2019-06-08T22:57:08.296Z,21.60
2019-06-08T22:59:38.100Z,21.70
2019-06-08T23:02:09.132Z,21.60
2019-06-08T23:04:39.103Z,21.60
2019-06-08T23:07:13.608Z,21.60
2019-06-08T23:09:40.462Z,21.60
2019-06-08T23:12:10.342Z,21.50
2019-06-08T23:14:40.189Z,21.50
2019-06-08T23:17:10.002Z,21.50
2019-06-08T23:19:39.851Z,21.50
2019-06-08T23:22:09.670Z,21.50
2019-06-08T23:24:39.295Z,21.40
2019-06-08T23:27:09.081Z,21.40
2019-06-08T23:29:39.009Z,21.40
2019-06-08T23:32:11.701Z,21.40
2019-06-08T23:34:41.694Z,21.40
2019-06-08T23:37:12.798Z,21.40
2019-06-08T23:39:42.857Z,21.40
2019-06-08T23:42:12.856Z,21.40
2019-06-08T23:44:42.618Z,21.40
2019-06-08T23:47:12.452Z,21.40
2019-06-08T23:49:42.259Z,21.40
2019-06-08T23:52:13.108Z,21.30
2019-06-08T23:54:42.923Z,21.30
2019-06-08T23:57:12.704Z,21.30
2019-06-08T23:59:42.545Z,21.30
